Time;durP1;ratioP1;P1;durP2;ratioP2;P2;SDS_P1;SDS_P2;PMS_P1;PMS_P2;Temp;Humidity;BMP_temperature;BMP_pressure;BME280_temperature;BME280_humidity;BME280_pressure;Samples;Min_cycle;Max_cycle;Signal;HPM_P1;HPM_P2
2022/06/15 00:01:28;;;;;;;0.20;0.17;;;12.10;99.90;;;;;;5037886;28;20072;-67
2022/06/15 00:03:54;;;;;;;0.20;0.20;;;12.10;99.90;;;;;;5027154;28;20017;-68
2022/06/15 00:06:28;;;;;;;1.27;0.55;;;12.10;99.90;;;;;;5040098;28;20040;-67
2022/06/15 00:08:56;;;;;;;0.45;0.20;;;11.90;99.90;;;;;;5042282;28;20026;-67
2022/06/15 00:11:27;;;;;;;0.98;0.30;;;11.90;99.90;;;;;;5043564;28;20036;-68
2022/06/15 00:13:54;;;;;;;1.02;0.43;;;11.90;99.90;;;;;;5044891;28;20053;-67
2022/06/15 00:16:21;;;;;;;1.23;0.40;;;11.90;99.90;;;;;;5039942;28;20055;-68
2022/06/15 00:18:47;;;;;;;0.40;0.20;;;11.90;99.90;;;;;;5044606;28;20025;-68
2022/06/15 00:21:14;;;;;;;0.70;0.30;;;11.90;99.90;;;;;;5048701;28;20450;-67
2022/06/15 00:23:40;;;;;;;1.15;0.55;;;11.80;99.90;;;;;;5046684;28;20100;-68
2022/06/15 00:26:07;;;;;;;0.17;0.17;;;11.90;99.90;;;;;;5047736;28;20039;-68
2022/06/15 00:28:34;;;;;;;0.38;0.20;;;11.80;99.90;;;;;;5045847;28;20021;-68
2022/06/15 00:31:00;;;;;;;0.93;0.30;;;11.80;99.90;;;;;;5044981;28;20056;-68
2022/06/15 00:33:27;;;;;;;0.85;0.40;;;11.80;99.90;;;;;;5047499;28;20406;-68
2022/06/15 00:35:57;;;;;;;1.23;0.55;;;11.80;99.90;;;;;;5040780;28;20116;-68
2022/06/15 00:38:27;;;;;;;0.30;0.20;;;11.80;99.90;;;;;;5046038;28;20100;-68
2022/06/15 00:40:53;;;;;;;0.57;0.20;;;11.70;99.90;;;;;;5051468;28;20033;-66
2022/06/15 00:43:41;;;;;;;0.75;0.30;;;11.80;99.90;;;;;;5044837;28;20109;-67
2022/06/15 00:46:17;;;;;;;0.10;0.10;;;11.70;99.90;;;;;;5044650;28;20025;-66
2022/06/15 00:48:44;;;;;;;3.03;0.50;;;11.60;99.90;;;;;;5044396;28;20063;-68
2022/06/15 00:51:11;;;;;;;0.28;0.20;;;11.60;99.90;;;;;;5056145;28;20021;-67
2022/06/15 00:53:37;;;;;;;0.55;0.25;;;11.60;99.90;;;;;;5044673;28;20032;-67
2022/06/15 00:56:03;;;;;;;0.75;0.40;;;11.60;99.90;;;;;;5050094;28;20067;-67
2022/06/15 00:58:31;;;;;;;0.45;0.20;;;11.50;99.90;;;;;;5048120;28;20032;-67
2022/06/15 01:00:57;;;;;;;0.70;0.30;;;11.50;99.90;;;;;;5047433;28;20062;-67
2022/06/15 01:03:23;;;;;;;0.40;0.20;;;11.50;99.90;;;;;;5043129;28;20026;-68
2022/06/15 01:06:12;;;;;;;1.08;0.50;;;11.40;99.90;;;;;;5047578;28;20896;-67
2022/06/15 01:09:08;;;;;;;1.42;0.85;;;11.40;99.90;;;;;;5043926;28;20032;-67
2022/06/15 01:12:06;;;;;;;0.88;0.32;;;11.40;99.90;;;;;;5045349;28;20056;-67
2022/06/15 01:14:57;;;;;;;0.68;0.30;;;11.40;99.90;;;;;;5043227;28;20033;-68
2022/06/15 01:17:30;;;;;;;0.60;0.30;;;11.30;99.90;;;;;;5047430;28;20017;-67
2022/06/15 01:20:20;;;;;;;0.90;0.30;;;11.30;99.90;;;;;;5043958;28;20032;-67
2022/06/15 01:22:52;;;;;;;1.33;0.52;;;11.30;99.90;;;;;;5046081;28;20037;-68
2022/06/15 01:25:41;;;;;;;1.23;0.40;;;11.30;99.90;;;;;;5045862;28;20044;-69
2022/06/15 01:28:57;;;;;;;0.50;0.22;;;11.20;99.90;;;;;;5049572;28;20030;-67
2022/06/15 01:31:32;;;;;;;1.77;0.65;;;11.20;99.90;;;;;;4997301;28;20056;-67
2022/06/15 01:34:09;;;;;;;0.68;0.30;;;11.20;99.90;;;;;;5001531;28;20052;-67
2022/06/15 01:37:02;;;;;;;1.55;0.80;;;11.10;99.90;;;;;;5026138;28;20033;-67
2022/06/15 01:39:47;;;;;;;0.63;0.40;;;11.20;99.90;;;;;;5045306;28;20125;-68
2022/06/15 01:42:28;;;;;;;0.75;0.30;;;11.10;99.90;;;;;;5038384;28;20041;-68
2022/06/15 01:44:58;;;;;;;0.60;0.30;;;11.00;99.90;;;;;;5038993;28;20053;-67
2022/06/15 01:47:27;;;;;;;0.93;0.50;;;11.10;99.90;;;;;;5045504;28;20047;-66
2022/06/15 01:49:59;;;;;;;0.93;0.40;;;11.00;99.90;;;;;;5038346;28;20018;-67
2022/06/15 01:52:32;;;;;;;0.77;0.30;;;11.00;99.90;;;;;;5041884;28;20079;-66
2022/06/15 01:55:05;;;;;;;0.70;0.30;;;11.00;99.90;;;;;;5044521;28;20041;-67
2022/06/15 01:57:34;;;;;;;0.20;0.20;;;11.00;99.90;;;;;;5040618;28;20032;-67
2022/06/15 02:00:11;;;;;;;0.28;0.20;;;10.90;99.90;;;;;;5045626;28;20044;-67
2022/06/15 02:03:04;;;;;;;0.45;0.20;;;11.00;99.90;;;;;;5040409;28;20037;-67
2022/06/15 02:05:30;;;;;;;0.85;0.40;;;11.00;99.90;;;;;;5040880;28;20029;-67
2022/06/15 02:08:20;;;;;;;0.30;0.28;;;11.00;99.90;;;;;;5043174;28;20040;-66
2022/06/15 02:10:49;;;;;;;0.47;0.30;;;11.00;99.90;;;;;;5039337;28;20025;-67
2022/06/15 02:13:21;;;;;;;0.77;0.22;;;10.90;99.90;;;;;;5045328;28;20032;-67
2022/06/15 02:15:54;;;;;;;0.43;0.30;;;10.90;99.90;;;;;;5045224;28;20025;-67
2022/06/15 02:18:22;;;;;;;0.52;0.30;;;10.80;99.90;;;;;;5041550;28;20041;-67
2022/06/15 02:20:57;;;;;;;0.35;0.22;;;10.90;99.90;;;;;;5051257;28;20025;-67
2022/06/15 02:23:25;;;;;;;0.38;0.22;;;10.80;99.90;;;;;;5046533;28;20079;-68
2022/06/15 02:25:52;;;;;;;0.20;0.20;;;10.80;99.90;;;;;;5044308;28;20057;-67
2022/06/15 02:28:20;;;;;;;0.57;0.22;;;10.80;99.90;;;;;;5044157;28;20134;-67
2022/06/15 02:30:45;;;;;;;1.05;0.70;;;10.70;99.90;;;;;;5042047;28;20093;-67
2022/06/15 02:33:23;;;;;;;0.47;0.30;;;10.60;99.90;;;;;;5042540;28;20063;-66
2022/06/15 02:35:48;;;;;;;0.98;0.40;;;10.70;99.90;;;;;;5041112;28;20024;-67
2022/06/15 02:38:15;;;;;;;0.20;0.20;;;10.70;99.90;;;;;;5044268;28;20037;-67
2022/06/15 02:40:40;;;;;;;0.60;0.30;;;10.60;99.90;;;;;;5039075;28;20029;-67
2022/06/15 02:43:07;;;;;;;0.50;0.20;;;10.70;99.90;;;;;;5040373;28;20573;-67
2022/06/15 02:45:38;;;;;;;0.20;0.20;;;10.60;99.90;;;;;;5037292;28;20060;-67
2022/06/15 02:48:06;;;;;;;0.30;0.20;;;10.60;99.90;;;;;;5048808;28;20174;-66
2022/06/15 02:50:40;;;;;;;0.25;0.20;;;10.60;99.90;;;;;;5044330;28;20017;-68
2022/06/15 02:53:13;;;;;;;0.40;0.20;;;10.60;99.90;;;;;;5039308;28;20651;-68
2022/06/15 02:55:39;;;;;;;1.02;0.50;;;10.60;99.90;;;;;;5039063;28;20029;-68
2022/06/15 02:58:30;;;;;;;0.40;0.20;;;10.60;99.90;;;;;;5045955;28;20030;-68
2022/06/15 03:00:57;;;;;;;0.32;0.20;;;10.50;99.90;;;;;;5042623;28;20136;-68
2022/06/15 03:03:24;;;;;;;0.38;0.20;;;10.60;99.90;;;;;;5035020;28;20045;-68
2022/06/15 03:05:51;;;;;;;0.55;0.30;;;10.60;99.90;;;;;;5039350;28;20054;-68
2022/06/15 03:08:18;;;;;;;0.38;0.20;;;10.60;99.90;;;;;;5042417;28;20244;-68
2022/06/15 03:10:44;;;;;;;0.28;0.20;;;10.50;99.90;;;;;;5042352;28;20048;-68
2022/06/15 03:13:10;;;;;;;0.38;0.20;;;10.50;99.90;;;;;;5043437;28;20029;-68
2022/06/15 03:15:36;;;;;;;0.32;0.20;;;10.60;99.90;;;;;;5043931;28;20056;-68
2022/06/15 03:18:02;;;;;;;0.60;0.30;;;10.60;99.90;;;;;;5045473;28;20032;-68
2022/06/15 03:20:28;;;;;;;1.15;0.68;;;10.60;99.90;;;;;;5044743;28;20044;-68
2022/06/15 03:22:54;;;;;;;0.55;0.22;;;10.60;99.90;;;;;;5032991;28;20041;-67
2022/06/15 03:25:19;;;;;;;0.38;0.20;;;10.60;99.90;;;;;;5035445;28;20025;-68
2022/06/15 03:27:45;;;;;;;0.40;0.28;;;10.60;99.90;;;;;;5038216;28;20043;-68
2022/06/15 03:30:12;;;;;;;1.00;0.40;;;10.70;99.90;;;;;;5046397;28;20130;-68
2022/06/15 03:32:37;;;;;;;0.60;0.30;;;10.70;99.90;;;;;;5043040;28;20041;-68
2022/06/15 03:35:04;;;;;;;0.30;0.20;;;10.70;99.90;;;;;;5015116;28;20089;-67
2022/06/15 03:37:30;;;;;;;0.45;0.30;;;10.70;99.90;;;;;;5045109;28;20029;-68
2022/06/15 03:39:55;;;;;;;0.80;0.30;;;10.70;99.90;;;;;;5041450;28;20041;-69
2022/06/15 03:42:24;;;;;;;0.38;0.20;;;10.70;99.90;;;;;;5031986;28;20049;-68
2022/06/15 03:44:50;;;;;;;0.38;0.20;;;10.70;99.90;;;;;;5039477;28;20021;-68
2022/06/15 03:47:20;;;;;;;0.52;0.30;;;10.70;99.90;;;;;;5039337;28;20057;-69
2022/06/15 03:49:51;;;;;;;0.73;0.30;;;10.70;99.90;;;;;;5047234;28;20478;-68
2022/06/15 03:52:22;;;;;;;0.73;0.30;;;10.80;99.90;;;;;;5043572;28;20464;-68
2022/06/15 03:54:48;;;;;;;0.63;0.30;;;10.80;99.90;;;;;;5043731;28;20041;-67
2022/06/15 03:57:16;;;;;;;0.20;0.20;;;10.80;99.90;;;;;;5041820;28;20544;-68
2022/06/15 03:59:42;;;;;;;0.77;0.35;;;10.80;99.90;;;;;;5053451;28;20041;-68
2022/06/15 04:02:07;;;;;;;0.47;0.30;;;10.80;99.90;;;;;;5045736;28;20041;-68
2022/06/15 04:04:33;;;;;;;1.10;0.52;;;10.90;99.90;;;;;;5045732;28;20031;-69
2022/06/15 04:06:59;;;;;;;0.20;0.20;;;10.90;99.90;;;;;;5042909;28;20059;-66
2022/06/15 04:09:27;;;;;;;0.75;0.55;;;10.90;99.90;;;;;;5040866;28;20029;-68
2022/06/15 04:12:02;;;;;;;0.70;0.50;;;11.00;99.90;;;;;;5045619;28;20049;-67
2022/06/15 04:14:32;;;;;;;0.38;0.20;;;11.00;99.90;;;;;;5048263;28;20116;-68
2022/06/15 04:16:59;;;;;;;0.85;0.30;;;11.10;99.90;;;;;;5049992;28;20033;-68
2022/06/15 04:19:28;;;;;;;0.20;0.20;;;11.10;99.90;;;;;;5048671;28;20124;-75
2022/06/15 04:21:54;;;;;;;0.50;0.30;;;11.20;99.90;;;;;;5044608;28;20038;-67
2022/06/15 04:24:21;;;;;;;0.77;0.30;;;11.20;99.90;;;;;;5044247;28;20093;-67
2022/06/15 04:26:48;;;;;;;0.38;0.30;;;11.30;99.90;;;;;;5040963;28;20123;-67
2022/06/15 04:29:14;;;;;;;0.60;0.30;;;11.40;99.90;;;;;;5053438;28;20029;-67
2022/06/15 04:31:40;;;;;;;0.70;0.30;;;11.40;99.90;;;;;;5042039;28;20099;-68
2022/06/15 04:34:09;;;;;;;1.23;0.40;;;11.60;99.90;;;;;;5045950;28;20465;-67
2022/06/15 04:36:39;;;;;;;1.35;0.40;;;11.60;99.90;;;;;;5049564;28;20033;-67
2022/06/15 04:39:08;;;;;;;0.55;0.30;;;11.70;99.90;;;;;;5035476;28;20052;-68
2022/06/15 04:41:36;;;;;;;0.88;0.40;;;11.70;99.90;;;;;;5046797;28;20044;-67
2022/06/15 04:44:02;;;;;;;0.45;0.22;;;11.80;99.90;;;;;;5048280;28;21833;-67
2022/06/15 04:46:28;;;;;;;0.60;0.30;;;11.80;99.90;;;;;;5051521;28;20041;-67
2022/06/15 04:48:53;;;;;;;0.68;0.30;;;11.90;99.90;;;;;;5043136;28;20044;-67
2022/06/15 04:51:23;;;;;;;0.75;0.30;;;11.90;99.90;;;;;;5040080;28;20029;-68
2022/06/15 04:53:50;;;;;;;0.90;0.40;;;12.00;99.90;;;;;;5048796;28;20126;-67
2022/06/15 04:56:16;;;;;;;0.65;0.30;;;12.00;99.90;;;;;;5037864;28;20069;-67
2022/06/15 04:58:43;;;;;;;0.32;0.20;;;12.20;99.90;;;;;;5045430;28;20033;-67
2022/06/15 05:01:10;;;;;;;0.68;0.30;;;12.30;99.90;;;;;;5043613;28;20038;-66
2022/06/15 05:03:37;;;;;;;0.95;0.30;;;12.40;99.90;;;;;;5042724;28;20048;-66
2022/06/15 05:06:10;;;;;;;0.40;0.20;;;12.50;99.90;;;;;;5039143;28;20025;-66
2022/06/15 05:08:35;;;;;;;0.20;0.20;;;12.70;99.90;;;;;;5043955;28;20108;-67
2022/06/15 05:11:01;;;;;;;0.60;0.30;;;12.80;99.90;;;;;;5044116;28;20481;-66
2022/06/15 05:13:27;;;;;;;0.28;0.20;;;12.80;99.90;;;;;;5051672;28;20522;-66
2022/06/15 05:15:53;;;;;;;0.20;0.20;;;12.90;99.90;;;;;;5041376;28;20124;-66
2022/06/15 05:18:19;;;;;;;1.52;0.68;;;13.00;99.90;;;;;;5048196;28;20045;-66
2022/06/15 05:20:44;;;;;;;1.42;0.60;;;13.00;99.90;;;;;;5043130;28;20022;-66
2022/06/15 05:23:17;;;;;;;0.90;0.50;;;13.10;99.90;;;;;;5043993;28;20030;-67
2022/06/15 05:25:43;;;;;;;0.77;0.30;;;13.20;99.90;;;;;;5042754;28;20037;-65
2022/06/15 05:28:10;;;;;;;0.57;0.20;;;13.30;99.90;;;;;;5039783;28;20079;-66
2022/06/15 05:30:36;;;;;;;1.33;0.35;;;13.40;99.90;;;;;;5046249;28;20020;-67
2022/06/15 05:33:02;;;;;;;0.70;0.30;;;13.50;99.90;;;;;;5034724;28;20038;-67
2022/06/15 05:35:29;;;;;;;0.73;0.30;;;13.60;99.90;;;;;;5037588;28;20080;-67
2022/06/15 05:37:55;;;;;;;2.38;0.70;;;13.90;99.90;;;;;;5052128;28;20057;-67
2022/06/15 05:40:20;;;;;;;0.93;0.40;;;14.10;99.90;;;;;;5060810;28;20074;-66
2022/06/15 05:42:46;;;;;;;1.50;0.57;;;14.30;99.90;;;;;;5050414;28;20461;-66
2022/06/15 05:45:12;;;;;;;1.00;0.30;;;14.30;99.90;;;;;;5044934;28;20528;-67
2022/06/15 05:47:37;;;;;;;0.60;0.20;;;14.40;99.90;;;;;;5042812;28;20025;-66
2022/06/15 05:50:04;;;;;;;0.80;0.28;;;14.70;99.90;;;;;;5050837;28;20029;-66
2022/06/15 05:52:30;;;;;;;1.00;0.40;;;14.70;99.90;;;;;;5043095;28;20065;-66
2022/06/15 05:54:58;;;;;;;0.57;0.20;;;14.90;99.90;;;;;;5040599;28;20037;-67
2022/06/15 05:57:24;;;;;;;0.50;0.28;;;15.10;99.90;;;;;;5056037;28;20079;-66
2022/06/15 05:59:52;;;;;;;0.95;0.30;;;15.50;99.90;;;;;;5039222;28;20051;-66
2022/06/15 06:02:19;;;;;;;0.80;0.25;;;15.70;99.90;;;;;;5035983;28;20044;-65
2022/06/15 06:04:45;;;;;;;0.17;0.10;;;15.90;99.90;;;;;;5041344;28;20053;-66
2022/06/15 06:07:11;;;;;;;0.90;0.20;;;16.30;99.90;;;;;;5049688;28;20017;-66
2022/06/15 06:09:37;;;;;;;0.80;0.40;;;16.80;99.90;;;;;;5042782;28;20101;-66
2022/06/15 06:12:04;;;;;;;0.73;0.30;;;16.60;99.90;;;;;;5048581;28;20478;-66
2022/06/15 06:14:30;;;;;;;0.90;0.35;;;16.90;99.90;;;;;;5044073;28;20029;-67
2022/06/15 06:16:55;;;;;;;1.13;0.63;;;16.70;99.90;;;;;;5047773;28;20097;-66
2022/06/15 06:19:21;;;;;;;0.38;0.20;;;17.10;99.90;;;;;;5049286;28;20029;-66
2022/06/15 06:21:47;;;;;;;1.25;0.68;;;17.80;99.90;;;;;;5041546;28;20041;-77
2022/06/15 06:24:13;;;;;;;0.10;0.10;;;17.80;99.90;;;;;;5046932;28;20017;-78
2022/06/15 06:26:39;;;;;;;0.43;0.20;;;18.00;99.90;;;;;;5019834;28;20105;-79
2022/06/15 06:29:06;;;;;;;0.20;0.10;;;18.30;99.90;;;;;;5043890;28;20021;-79
2022/06/15 06:31:32;;;;;;;0.47;0.32;;;18.20;99.90;;;;;;5051912;28;20045;-78
2022/06/15 06:33:58;;;;;;;0.10;0.10;;;18.60;99.90;;;;;;5030982;28;20272;-79
2022/06/15 06:36:36;;;;;;;0.47;0.20;;;18.70;99.90;;;;;;5029328;28;20561;-78
2022/06/15 06:39:05;;;;;;;0.43;0.30;;;19.00;99.90;;;;;;5038583;28;20029;-78
2022/06/15 06:41:32;;;;;;;0.10;0.10;;;19.20;99.90;;;;;;5044516;28;20071;-79
2022/06/15 06:43:59;;;;;;;0.38;0.20;;;19.60;99.90;;;;;;5016461;28;20079;-78
2022/06/15 06:46:25;;;;;;;0.55;0.30;;;19.80;99.90;;;;;;5042665;28;20037;-78
2022/06/15 06:48:51;;;;;;;0.17;0.10;;;20.30;99.90;;;;;;5033504;28;20061;-79
2022/06/15 06:51:17;;;;;;;0.10;0.08;;;20.40;99.90;;;;;;5049692;28;20103;-66
2022/06/15 06:53:43;;;;;;;0.10;0.10;;;20.30;99.90;;;;;;5045561;28;20457;-67
2022/06/15 06:56:10;;;;;;;0.20;0.10;;;20.70;99.90;;;;;;5040164;28;20030;-67
2022/06/15 06:58:36;;;;;;;0.10;0.10;;;20.70;99.90;;;;;;5038178;28;20033;-66
2022/06/15 07:01:02;;;;;;;0.10;0.10;;;21.00;99.90;;;;;;5041046;28;20049;-68
2022/06/15 07:03:29;;;;;;;0.08;0.00;;;21.30;99.90;;;;;;5038603;28;20025;-66
2022/06/15 07:06:09;;;;;;;0.20;0.10;;;21.50;99.90;;;;;;5044924;28;20039;-67
2022/06/15 07:08:37;;;;;;;0.10;0.10;;;21.60;99.90;;;;;;5039047;28;20547;-67
2022/06/15 07:11:08;;;;;;;0.10;0.10;;;21.60;99.90;;;;;;5045649;28;20479;-66
2022/06/15 07:13:34;;;;;;;0.10;0.10;;;21.70;99.90;;;;;;5044888;28;20056;-67
2022/06/15 07:16:06;;;;;;;0.10;0.10;;;21.70;99.90;;;;;;5040746;28;20048;-67
2022/06/15 07:18:32;;;;;;;0.15;0.10;;;21.60;99.90;;;;;;5041937;28;20362;-67
2022/06/15 07:21:03;;;;;;;0.00;0.00;;;21.80;99.90;;;;;;5044027;28;20029;-68
2022/06/15 07:23:29;;;;;;;0.10;0.10;;;22.20;99.90;;;;;;5042904;28;20449;-68
2022/06/15 07:25:54;;;;;;;0.17;0.10;;;22.20;99.90;;;;;;5046807;28;20036;-68
2022/06/15 07:28:20;;;;;;;0.20;0.10;;;22.70;99.90;;;;;;5046053;28;20048;-67
2022/06/15 07:30:45;;;;;;;0.00;0.00;;;23.00;99.90;;;;;;5047459;28;20025;-67
2022/06/15 07:33:11;;;;;;;0.10;0.10;;;23.20;99.90;;;;;;5048143;28;20199;-69
2022/06/15 07:35:38;;;;;;;0.20;0.20;;;23.30;99.90;;;;;;5056756;28;20068;-68
2022/06/15 07:38:05;;;;;;;0.00;0.00;;;22.50;83.60;;;;;;5039379;28;20040;-72
2022/06/15 07:40:31;;;;;;;0.20;0.10;;;22.90;80.00;;;;;;5044601;28;20028;-72
2022/06/15 07:42:57;;;;;;;0.00;0.00;;;23.30;96.30;;;;;;5044783;28;20036;-72
2022/06/15 07:45:24;;;;;;;0.10;0.10;;;23.30;89.20;;;;;;5045341;28;20036;-72
2022/06/15 07:50:37;;;;;;;0.00;0.00;;;23.90;99.90;;;;;;5047719;28;20071;-72
2022/06/15 07:53:06;;;;;;;0.10;0.10;;;24.20;91.30;;;;;;5048027;28;20029;-71
2022/06/15 07:55:37;;;;;;;0.00;0.00;;;23.90;69.90;;;;;;5048023;28;20029;-71
2022/06/15 07:58:04;;;;;;;0.00;0.00;;;23.60;60.10;;;;;;5044547;28;20041;-72
2022/06/15 08:00:31;;;;;;;0.00;0.00;;;23.90;64.90;;;;;;5050180;28;20025;-71
2022/06/15 08:02:58;;;;;;;0.28;0.10;;;23.20;60.50;;;;;;5039515;28;20115;-72
2022/06/15 08:05:25;;;;;;;0.20;0.10;;;23.70;68.60;;;;;;5042431;28;20026;-72
2022/06/15 08:07:51;;;;;;;0.10;0.10;;;22.40;61.10;;;;;;5048957;28;20430;-72
2022/06/15 08:10:20;;;;;;;0.00;0.00;;;23.10;68.30;;;;;;5053749;28;20112;-72
2022/06/15 08:12:46;;;;;;;0.00;0.00;;;23.60;75.60;;;;;;5040440;28;20026;-72
2022/06/15 08:15:15;;;;;;;0.00;0.00;;;23.80;73.40;;;;;;5026656;28;20053;-71
2022/06/15 08:18:06;;;;;;;0.00;0.00;;;23.50;70.50;;;;;;5046897;28;20030;-72
2022/06/15 08:20:43;;;;;;;0.10;0.10;;;23.90;79.00;;;;;;5043160;28;20041;-72
2022/06/15 08:23:13;;;;;;;0.10;0.10;;;24.30;65.90;;;;;;5047640;28;20087;-72
2022/06/15 08:25:43;;;;;;;0.03;0.03;;;24.20;60.20;;;;;;5044183;28;20032;-72
2022/06/15 08:28:10;;;;;;;0.20;0.10;;;24.60;59.50;;;;;;5038659;28;20028;-71
2022/06/15 08:30:37;;;;;;;0.10;0.10;;;25.30;57.90;;;;;;5040495;28;20290;-72
2022/06/15 08:33:09;;;;;;;0.10;0.10;;;25.70;54.80;;;;;;5041756;28;20040;-71
2022/06/15 08:35:36;;;;;;;0.00;0.00;;;26.60;61.20;;;;;;5045913;28;20033;-71
2022/06/15 08:38:04;;;;;;;0.00;0.00;;;26.20;56.60;;;;;;5041050;28;20511;-71
2022/06/15 08:40:36;;;;;;;0.10;0.10;;;26.40;51.40;;;;;;5045661;28;20097;-73
2022/06/15 08:43:44;;;;;;;0.00;0.00;;;26.60;51.90;;;;;;5049293;28;20059;-72
2022/06/15 08:46:19;;;;;;;0.00;0.00;;;26.40;48.90;;;;;;5047399;28;20109;-72
2022/06/15 08:48:52;;;;;;;0.00;0.00;;;26.90;53.00;;;;;;5046838;28;20559;-71
2022/06/15 08:51:43;;;;;;;0.10;0.10;;;27.10;51.50;;;;;;5047939;28;20040;-72
2022/06/15 08:54:17;;;;;;;0.00;0.00;;;27.00;52.00;;;;;;5044495;28;20112;-71
2022/06/15 08:56:46;;;;;;;0.00;0.00;;;26.70;52.00;;;;;;5044461;28;20417;-70
2022/06/15 08:59:19;;;;;;;0.10;0.10;;;26.50;49.10;;;;;;5045636;28;20029;-70
2022/06/15 09:02:21;;;;;;;0.00;0.00;;;26.30;51.20;;;;;;5045890;28;20637;-70
2022/06/15 09:05:26;;;;;;;0.00;0.00;;;27.40;49.30;;;;;;5047951;28;20085;-72
2022/06/15 09:08:16;;;;;;;0.00;0.00;;;27.60;50.20;;;;;;5072165;28;20040;-71
2022/06/15 09:11:11;;;;;;;0.10;0.00;;;27.70;48.90;;;;;;5044656;28;20040;-72
2022/06/15 09:14:02;;;;;;;0.00;0.00;;;28.00;49.70;;;;;;5049083;28;20028;-71
2022/06/15 09:16:42;;;;;;;0.00;0.00;;;27.00;48.10;;;;;;5046929;28;20036;-71
2022/06/15 09:19:13;;;;;;;1.35;0.28;;;27.20;50.80;;;;;;5049541;28;20071;-72
2022/06/15 09:21:51;;;;;;;;;;;27.40;49.50;;;;;;5043901;28;20037;-72
2022/06/15 09:24:21;;;;;;;1.15;0.40;;;27.20;49.50;;;;;;5044383;28;19913;-72
2022/06/15 09:26:53;;;;;;;0.25;0.22;;;26.90;50.80;;;;;;5044633;28;20063;-72
2022/06/15 09:29:41;;;;;;;0.10;0.10;;;26.90;50.40;;;;;;5044756;28;20093;-71
2022/06/15 09:32:22;;;;;;;0.00;0.00;;;26.70;52.30;;;;;;5044759;28;20053;-72
2022/06/15 09:35:24;;;;;;;0.08;0.00;;;26.80;51.50;;;;;;5038969;28;20037;-78
2022/06/15 09:37:52;;;;;;;0.00;0.00;;;27.10;51.40;;;;;;5040371;28;20465;-78
2022/06/15 09:40:19;;;;;;;0.28;0.15;;;26.80;51.10;;;;;;5041400;28;20055;-77
2022/06/15 09:42:58;;;;;;;0.08;0.00;;;26.80;49.60;;;;;;5046168;28;20033;-78
2022/06/15 09:45:31;;;;;;;0.15;0.10;;;27.00;51.00;;;;;;5051044;28;20033;-78
2022/06/15 09:48:22;;;;;;;0.00;0.00;;;26.30;49.10;;;;;;5041607;28;20032;-78
2022/06/15 09:51:06;;;;;;;0.03;0.03;;;25.70;50.50;;;;;;5058164;28;20100;-79
2022/06/15 09:53:43;;;;;;;0.08;0.03;;;25.20;51.90;;;;;;5048565;28;20047;-79
2022/06/15 09:56:13;;;;;;;0.00;0.00;;;25.10;52.50;;;;;;5050378;28;20041;-79
2022/06/15 09:58:55;;;;;;;0.10;0.10;;;25.90;53.80;;;;;;5044722;28;20063;-78
2022/06/15 10:01:27;;;;;;;0.20;0.10;;;26.20;50.20;;;;;;5044388;28;20040;-75
2022/06/15 10:03:56;;;;;;;0.00;0.00;;;26.70;53.20;;;;;;5042507;28;20029;-76
2022/06/15 10:06:34;;;;;;;0.00;0.00;;;27.50;52.60;;;;;;5041940;28;20809;-76
2022/06/15 10:09:04;;;;;;;0.00;0.00;;;27.70;53.10;;;;;;5042979;28;20034;-77
2022/06/15 10:11:36;;;;;;;0.27;0.23;;;27.60;49.10;;;;;;5047375;28;20122;-77
2022/06/15 10:14:24;;;;;;;0.20;0.20;;;27.40;50.30;;;;;;5053422;28;20028;-80
2022/06/15 10:16:58;;;;;;;0.10;0.10;;;27.00;47.40;;;;;;5053607;28;20025;-80
2022/06/15 10:19:26;;;;;;;0.00;0.00;;;27.50;50.30;;;;;;5042502;28;20496;-77
2022/06/15 10:21:58;;;;;;;0.65;0.10;;;27.50;47.10;;;;;;5033626;28;20110;-73
2022/06/15 10:24:26;;;;;;;0.00;0.00;;;27.80;46.50;;;;;;5048549;28;20029;-73
2022/06/15 10:27:20;;;;;;;0.00;0.00;;;27.50;44.60;;;;;;5054849;28;20059;-69
2022/06/15 10:30:13;;;;;;;0.00;0.00;;;27.70;48.80;;;;;;5047357;28;20025;-77
2022/06/15 10:33:01;;;;;;;0.22;0.20;;;28.00;49.40;;;;;;5048804;28;20041;-78
2022/06/15 10:35:34;;;;;;;0.17;0.00;;;27.80;46.50;;;;;;5050912;28;20048;-77
2022/06/15 10:38:04;;;;;;;0.10;0.05;;;28.40;48.70;;;;;;5044384;28;20033;-79
2022/06/15 10:40:31;;;;;;;0.00;0.00;;;27.60;47.40;;;;;;5039330;28;20060;-80
2022/06/15 10:43:16;;;;;;;0.10;0.10;;;27.10;46.00;;;;;;5044974;28;20039;-72
2022/06/15 10:46:01;;;;;;;0.10;0.10;;;27.40;51.90;;;;;;5040940;28;20018;-71
2022/06/15 10:48:53;;;;;;;0.10;0.08;;;28.40;47.60;;;;;;5041172;28;20052;-71
2022/06/15 10:51:39;;;;;;;0.30;0.30;;;27.60;47.30;;;;;;5041304;28;20021;-72
2022/06/15 10:54:34;;;;;;;0.00;0.00;;;27.80;46.80;;;;;;5041333;28;20198;-71
2022/06/15 11:03:25;;;;;;;0.10;0.10;;;29.30;46.50;;;;;;5045435;28;20155;-73
2022/06/15 11:05:54;;;;;;;0.00;0.00;;;29.60;45.60;;;;;;5047598;28;20021;-73
2022/06/15 11:08:23;;;;;;;0.00;0.00;;;30.10;47.60;;;;;;5054006;28;20025;-83
2022/06/15 11:10:54;;;;;;;0.00;0.00;;;28.80;44.40;;;;;;5048315;28;20033;-81
2022/06/15 11:13:26;;;;;;;0.00;0.00;;;30.30;45.10;;;;;;5041444;28;20030;-71
2022/06/15 11:18:39;;;;;;;0.10;0.10;;;30.80;44.90;;;;;;5041883;28;20148;-70
2022/06/15 11:21:14;;;;;;;0.00;0.00;;;29.30;42.70;;;;;;5047809;28;20029;-70
2022/06/15 11:24:00;;;;;;;0.10;0.10;;;29.20;44.30;;;;;;5044754;28;20048;-70
2022/06/15 11:26:55;;;;;;;0.17;0.10;;;29.60;45.30;;;;;;5044029;28;20040;-69
2022/06/15 11:29:45;;;;;;;0.00;0.00;;;30.30;47.10;;;;;;5047520;28;20033;-69
2022/06/15 11:32:38;;;;;;;0.20;0.10;;;30.20;45.10;;;;;;5043760;28;20116;-71
2022/06/15 11:35:12;;;;;;;0.03;0.03;;;29.80;43.90;;;;;;5040702;28;20032;-70
2022/06/15 11:38:10;;;;;;;0.00;0.00;;;28.90;44.40;;;;;;5041861;28;20060;-70
2022/06/15 11:40:59;;;;;;;0.00;0.00;;;29.50;43.40;;;;;;5045805;28;20049;-70
2022/06/15 11:43:36;;;;;;;0.32;0.30;;;28.60;42.50;;;;;;5042682;28;20116;-70
2022/06/15 11:46:09;;;;;;;0.10;0.10;;;29.50;47.20;;;;;;5041321;28;20025;-70
2022/06/15 11:48:40;;;;;;;0.10;0.10;;;28.30;43.90;;;;;;5042637;28;20028;-70
2022/06/15 11:51:26;;;;;;;0.00;0.00;;;28.80;44.60;;;;;;5038061;28;20033;-70
2022/06/15 11:54:10;;;;;;;0.00;0.00;;;29.50;45.30;;;;;;5037967;28;20117;-70
2022/06/15 11:56:53;;;;;;;0.15;0.10;;;29.30;43.40;;;;;;5038335;28;20021;-70
2022/06/15 11:59:38;;;;;;;0.10;0.10;;;29.50;43.70;;;;;;5041861;28;20030;-70
2022/06/15 12:02:29;;;;;;;0.00;0.00;;;29.30;44.60;;;;;;5043993;28;20048;-70
2022/06/15 12:05:04;;;;;;;0.00;0.00;;;29.80;44.60;;;;;;5038253;28;20032;-70
2022/06/15 12:07:59;;;;;;;0.00;0.00;;;29.00;43.00;;;;;;5035517;28;20025;-70
2022/06/15 12:10:50;;;;;;;0.00;0.00;;;28.60;46.50;;;;;;5039534;28;20021;-70
2022/06/15 12:13:40;;;;;;;0.20;0.10;;;28.30;46.50;;;;;;5041063;28;20026;-70
2022/06/15 12:16:19;;;;;;;0.68;0.68;;;28.50;45.40;;;;;;5048446;28;20034;-70
2022/06/15 12:19:11;;;;;;;0.17;0.10;;;28.60;43.70;;;;;;5043352;28;20040;-70
2022/06/15 12:22:12;;;;;;;0.17;0.00;;;28.00;44.60;;;;;;5043076;28;20048;-71
2022/06/15 12:25:00;;;;;;;0.00;0.00;;;28.40;45.50;;;;;;5036534;28;20037;-70
2022/06/15 12:27:44;;;;;;;0.00;0.00;;;29.00;45.80;;;;;;5041383;28;20021;-70
2022/06/15 12:30:10;;;;;;;0.47;0.38;;;29.20;42.60;;;;;;5044763;28;21091;-70
2022/06/15 12:32:52;;;;;;;0.47;0.35;;;28.80;43.60;;;;;;5039681;28;20048;-70
2022/06/15 12:35:34;;;;;;;0.20;0.05;;;29.60;47.20;;;;;;5048431;28;20074;-70
2022/06/15 12:38:02;;;;;;;0.08;0.08;;;29.30;44.70;;;;;;5038227;28;20053;-70
2022/06/15 12:40:42;;;;;;;0.08;0.08;;;28.70;47.20;;;;;;5042551;28;20171;-70
2022/06/15 12:43:31;;;;;;;0.00;0.00;;;28.80;42.10;;;;;;5038665;28;20037;-70
2022/06/15 12:46:08;;;;;;;0.03;0.03;;;29.00;44.40;;;;;;5045269;28;20029;-78
2022/06/15 12:48:37;;;;;;;0.10;0.10;;;28.20;45.00;;;;;;5043139;28;20148;-79
2022/06/15 12:51:03;;;;;;;0.00;0.00;;;28.80;48.00;;;;;;5044807;28;20037;-80
2022/06/15 12:53:44;;;;;;;0.00;0.00;;;27.90;45.50;;;;;;5044358;28;20037;-78
2022/06/15 12:56:20;;;;;;;0.10;0.10;;;27.70;45.20;;;;;;5044779;28;20051;-75
2022/06/15 12:59:01;;;;;;;1.63;0.45;;;27.80;46.80;;;;;;5044939;28;20035;-76
2022/06/15 13:01:37;;;;;;;;;;;27.40;46.20;;;;;;5030318;28;20045;-75
2022/06/15 13:04:12;;;;;;;0.00;0.00;;;27.10;48.10;;;;;;5040867;28;19913;-76
2022/06/15 13:06:40;;;;;;;0.00;0.00;;;26.70;48.30;;;;;;5040141;28;20052;-77
2022/06/15 13:09:20;;;;;;;0.00;0.00;;;26.60;50.70;;;;;;5045259;28;20164;-76
2022/06/15 13:11:59;;;;;;;0.08;0.08;;;26.30;46.70;;;;;;5041465;28;20404;-75
2022/06/15 13:14:32;;;;;;;0.10;0.00;;;26.70;47.30;;;;;;5037652;28;20110;-78
2022/06/15 13:17:14;;;;;;;0.00;0.00;;;26.70;47.80;;;;;;5040786;28;20033;-78
2022/06/15 13:19:45;;;;;;;0.00;0.00;;;27.10;45.80;;;;;;5040706;28;20063;-76
2022/06/15 13:22:28;;;;;;;0.10;0.10;;;26.70;45.40;;;;;;5040704;28;20068;-77
2022/06/15 13:25:05;;;;;;;0.20;0.10;;;27.30;47.20;;;;;;5042691;28;20041;-77
2022/06/15 13:27:37;;;;;;;0.08;0.00;;;27.30;49.50;;;;;;5047538;28;20025;-76
2022/06/15 13:30:26;;;;;;;0.00;0.00;;;27.70;49.90;;;;;;5044141;28;20076;-76